Time;durP1;ratioP1;P1;durP2;ratioP2;P2;SDS_P1;SDS_P2;PMS_P1;PMS_P2;Temp;Humidity;BMP_temperature;BMP_pressure;BME280_temperature;BME280_humidity;BME280_pressure;Samples;Min_cycle;Max_cycle;Signal;HPM_P1;HPM_P2
2022/03/17 00:01:17;;;;;;;12.02;6.75;;;;;;;13.61;55.24;99128.13;4918620;29;20112;-48
2022/03/17 00:03:42;;;;;;;11.77;5.90;;;;;;;13.55;55.79;99119.22;4918631;29;20032;-50
2022/03/17 00:06:12;;;;;;;12.55;6.57;;;;;;;13.49;55.60;99122.69;4918592;29;20114;-49
2022/03/17 00:08:38;;;;;;;11.43;6.95;;;;;;;13.45;55.95;99123.31;4918522;29;20107;-49
2022/03/17 00:11:04;;;;;;;11.10;6.80;;;;;;;13.49;55.88;99122.69;4917236;29;20618;-50
2022/03/17 00:13:30;;;;;;;14.18;7.38;;;;;;;13.45;56.07;99124.13;4918441;29;20016;-49
2022/03/17 00:15:56;;;;;;;12.93;7.35;;;;;;;13.36;56.14;99128.81;4918427;29;20075;-50
2022/03/17 00:18:22;;;;;;;13.15;7.70;;;;;;;13.36;56.26;99130.63;4918188;29;20430;-50
2022/03/17 00:20:48;;;;;;;16.58;8.23;;;;;;;13.29;56.96;99130.66;4918232;29;20475;-50
2022/03/17 00:23:14;;;;;;;13.38;7.47;;;;;;;13.33;56.70;99134.50;4918223;29;20156;-50
2022/03/17 00:25:40;;;;;;;13.90;8.00;;;;;;;13.37;56.60;99133.06;4918147;29;20028;-50
2022/03/17 00:28:06;;;;;;;17.42;9.48;;;;;;;13.37;56.77;99142.81;4916920;29;20032;-49
2022/03/17 00:30:32;;;;;;;12.95;7.90;;;;;;;13.29;57.05;99132.47;4916863;29;20569;-49
2022/03/17 00:32:57;;;;;;;13.80;8.05;;;;;;;13.26;57.26;99136.31;4918106;29;20027;-50
2022/03/17 00:35:35;;;;;;;15.88;8.85;;;;;;;13.24;57.38;99127.81;4918047;29;20020;-49
2022/03/17 00:38:07;;;;;;;14.20;9.48;;;;;;;13.13;57.97;99133.69;4918075;29;20034;-49
2022/03/17 00:40:37;;;;;;;15.38;8.95;;;;;;;13.11;57.84;99127.84;4917827;29;20031;-49
2022/03/17 00:43:07;;;;;;;16.00;8.63;;;;;;;13.08;57.95;99128.22;4916594;29;20533;-49
2022/03/17 00:45:32;;;;;;;13.45;8.73;;;;;;;13.01;57.95;99130.06;4917883;29;20028;-49
2022/03/17 00:47:58;;;;;;;13.38;8.35;;;;;;;12.95;58.28;99137.78;4917829;29;20028;-49
2022/03/17 00:50:24;;;;;;;17.67;9.07;;;;;;;12.98;58.00;99137.38;4917790;29;20028;-50
2022/03/17 00:52:50;;;;;;;14.85;7.53;;;;;;;12.99;57.75;99143.44;4917755;29;20032;-50
2022/03/17 00:55:16;;;;;;;20.35;8.55;;;;;;;12.95;57.79;99145.69;4917683;29;20028;-49
2022/03/17 00:57:42;;;;;;;13.85;7.88;;;;;;;13.04;57.73;99148.94;4917696;29;20035;-50
2022/03/17 01:00:10;;;;;;;13.13;7.63;;;;;;;13.13;57.56;99152.97;4917554;29;20051;-49
2022/03/17 01:02:36;;;;;;;12.90;8.10;;;;;;;13.14;57.47;99148.50;4916257;29;20520;-49
2022/03/17 01:05:03;;;;;;;17.08;8.48;;;;;;;13.05;57.44;99150.53;4916207;29;20490;-50
2022/03/17 01:07:28;;;;;;;15.07;8.23;;;;;;;13.03;57.39;99151.75;4917532;29;20032;-50
2022/03/17 01:09:54;;;;;;;16.77;8.30;;;;;;;12.95;57.59;99150.16;4917417;29;20060;-49
2022/03/17 01:12:20;;;;;;;14.02;6.90;;;;;;;13.03;57.67;99160.47;4917417;29;20060;-49
2022/03/17 01:14:47;;;;;;;15.27;8.20;;;;;;;13.10;57.31;99160.44;4916074;29;20123;-49
2022/03/17 01:17:13;;;;;;;20.60;8.93;;;;;;;13.09;57.44;99164.13;4920716;29;20052;-48
2022/03/17 01:19:39;;;;;;;15.98;7.38;;;;;;;13.16;57.30;99157.03;4931810;29;20040;-49
2022/03/17 01:22:04;;;;;;;14.95;7.55;;;;;;;13.33;57.37;99163.50;4917125;29;20554;-49
2022/03/17 01:24:30;;;;;;;12.73;5.85;;;;;;;13.44;56.72;99162.06;4917126;29;20111;-50
2022/03/17 01:26:56;;;;;;;14.40;6.85;;;;;;;13.48;56.72;99160.63;4915864;29;20039;-49
2022/03/17 01:29:21;;;;;;;17.35;7.50;;;;;;;13.43;56.38;99157.78;4917141;29;20368;-49
2022/03/17 01:31:47;;;;;;;18.15;12.75;;;;;;;13.37;56.42;99154.16;4915717;29;20051;-49
2022/03/17 01:34:13;;;;;;;18.85;16.08;;;;;;;13.33;56.47;99158.22;4916992;29;20431;-49
2022/03/17 01:36:38;;;;;;;12.18;6.72;;;;;;;13.33;56.89;99152.16;4915186;29;20055;-49
2022/03/17 01:39:04;;;;;;;13.35;6.10;;;;;;;13.30;56.51;99160.44;4916946;29;20024;-49
2022/03/17 01:41:30;;;;;;;11.13;5.53;;;;;;;13.25;56.52;99163.69;4915475;29;20032;-50
2022/03/17 01:43:56;;;;;;;11.20;5.63;;;;;;;13.22;56.50;99156.19;4916829;29;20029;-50
2022/03/17 01:46:22;;;;;;;12.55;6.43;;;;;;;13.24;56.78;99156.81;4915482;29;20040;-49
2022/03/17 01:48:47;;;;;;;13.93;6.30;;;;;;;13.27;56.76;99153.75;4916761;29;20024;-49
2022/03/17 01:51:13;;;;;;;15.05;6.25;;;;;;;13.22;56.86;99161.47;4916689;29;20032;-49
2022/03/17 01:53:39;;;;;;;12.85;6.13;;;;;;;13.19;56.50;99157.41;4916649;29;20017;-49
2022/03/17 01:56:06;;;;;;;15.18;6.45;;;;;;;13.16;56.63;99157.81;4916619;29;20029;-50
2022/03/17 01:58:32;;;;;;;14.00;5.80;;;;;;;13.16;56.83;99162.28;4916575;29;20036;-49
2022/03/17 02:00:58;;;;;;;16.13;5.57;;;;;;;13.02;57.16;99160.66;4915143;29;20028;-49
2022/03/17 02:03:26;;;;;;;10.98;5.25;;;;;;;12.82;57.55;99164.16;4916545;29;20568;-49
2022/03/17 02:05:53;;;;;;;10.27;5.38;;;;;;;12.71;58.11;99162.09;4916473;29;20024;-49
2022/03/17 02:08:19;;;;;;;12.07;6.20;;;;;;;12.61;57.97;99157.22;4916401;29;20107;-49
2022/03/17 02:13:29;;;;;;;12.50;6.05;;;;;;;12.78;57.77;99158.47;4916612;29;20027;-49
2022/03/17 02:15:56;;;;;;;8.18;5.80;;;;;;;12.78;57.83;99160.28;4916243;29;20028;-49
2022/03/17 02:18:22;;;;;;;15.02;6.85;;;;;;;12.81;58.37;99159.06;4916083;29;20074;-50
2022/03/17 02:20:49;;;;;;;15.95;7.40;;;;;;;12.70;58.39;99163.13;4916104;29;20024;-50
2022/03/17 02:26:04;;;;;;;14.98;6.82;;;;;;;12.51;58.83;99160.25;4905376;29;20103;-49
2022/03/17 02:28:32;;;;;;;15.20;6.78;;;;;;;12.38;59.41;99160.25;4916054;29;20586;-49
2022/03/17 02:30:59;;;;;;;13.65;7.20;;;;;;;12.32;59.55;99158.44;4916033;29;20020;-49
2022/03/17 02:33:26;;;;;;;15.38;8.90;;;;;;;12.24;59.84;99169.13;4914736;29;20032;-49
2022/03/17 02:35:53;;;;;;;17.65;8.02;;;;;;;12.11;60.33;99168.09;4916007;29;20030;-50
2022/03/17 02:38:21;;;;;;;11.13;6.50;;;;;;;12.03;60.41;99163.00;4914622;29;20478;-49
2022/03/17 02:40:50;;;;;;;12.90;6.50;;;;;;;11.97;60.74;99169.03;4914468;29;20020;-49
2022/03/17 02:43:16;;;;;;;18.55;6.95;;;;;;;11.92;60.79;99167.00;4915868;29;20062;-49
2022/03/17 02:45:44;;;;;;;13.18;6.72;;;;;;;11.88;61.03;99170.22;4915774;29;20514;-49
2022/03/17 02:48:10;;;;;;;13.52;6.20;;;;;;;11.83;61.15;99173.44;4915045;29;20403;-49
2022/03/17 02:50:37;;;;;;;11.90;6.22;;;;;;;11.82;61.37;99179.69;4915780;29;20119;-50
2022/03/17 02:53:07;;;;;;;13.88;6.22;;;;;;;11.87;61.04;99173.84;4915761;29;20541;-49
2022/03/17 02:55:39;;;;;;;14.90;6.45;;;;;;;11.88;61.21;99172.84;4914484;29;20051;-49
2022/03/17 02:58:06;;;;;;;16.25;7.43;;;;;;;11.90;61.09;99181.38;4915792;29;20063;-49
2022/03/17 03:00:33;;;;;;;11.25;6.28;;;;;;;11.95;61.14;99176.31;4914306;29;20030;-49
2022/03/17 03:02:59;;;;;;;9.65;5.70;;;;;;;11.95;61.12;99187.69;4915760;29;20491;-50
2022/03/17 03:05:26;;;;;;;10.77;6.82;;;;;;;11.98;60.94;99191.72;4915653;29;20076;-49
2022/03/17 03:07:53;;;;;;;9.55;6.20;;;;;;;11.91;60.81;99183.81;4915872;29;20035;-49
2022/03/17 03:10:19;;;;;;;11.90;7.13;;;;;;;11.79;61.43;99186.16;4914269;29;20039;-49
2022/03/17 03:12:45;;;;;;;10.15;6.40;;;;;;;11.65;61.47;99184.47;4915584;29;20028;-49
2022/03/17 03:15:11;;;;;;;13.38;7.15;;;;;;;11.63;61.76;99193.53;4915565;29;20034;-49
2022/03/17 03:17:38;;;;;;;18.70;8.68;;;;;;;11.60;62.04;99194.75;4915173;29;20585;-49
2022/03/17 03:20:05;;;;;;;11.68;7.25;;;;;;;11.53;62.14;99191.25;4915464;29;20514;-49
2022/03/17 03:22:36;;;;;;;10.52;7.75;;;;;;;11.48;62.46;99191.84;4914189;29;20025;-48
2022/03/17 03:25:03;;;;;;;10.30;7.38;;;;;;;11.43;62.77;99196.91;4915500;29;20067;-49
2022/03/17 03:27:29;;;;;;;12.98;7.70;;;;;;;11.49;62.78;99196.13;4915455;29;20024;-49
2022/03/17 03:29:56;;;;;;;14.23;9.20;;;;;;;11.51;63.11;99190.66;4914144;29;20047;-49
2022/03/17 03:32:22;;;;;;;15.27;7.45;;;;;;;11.45;62.85;99196.69;4915355;29;20047;-49
2022/03/17 03:34:49;;;;;;;15.00;8.20;;;;;;;11.48;63.14;99197.09;4915647;29;20039;-49
2022/03/17 03:37:25;;;;;;;12.10;7.43;;;;;;;11.52;62.82;99197.53;4914025;29;20141;-49
2022/03/17 03:39:56;;;;;;;9.82;7.22;;;;;;;11.50;62.54;99199.56;4914122;29;20047;-50
2022/03/17 03:42:25;;;;;;;21.98;8.68;;;;;;;11.52;62.69;99205.44;4915223;29;20494;-50
2022/03/17 03:44:51;;;;;;;21.92;10.02;;;;;;;11.55;62.78;99202.41;4914079;29;20115;-49
2022/03/17 03:47:17;;;;;;;13.30;7.20;;;;;;;11.57;62.30;99192.53;4915222;29;20024;-49
2022/03/17 03:49:44;;;;;;;16.27;8.32;;;;;;;11.56;62.50;99204.84;4915245;29;20104;-49
2022/03/17 03:52:14;;;;;;;11.05;7.10;;;;;;;11.57;62.47;99205.66;4915262;29;20052;-49
2022/03/17 03:54:40;;;;;;;10.68;7.10;;;;;;;11.50;62.22;99212.69;4915229;29;20059;-49
2022/03/17 03:57:07;;;;;;;13.70;6.97;;;;;;;11.41;62.47;99209.41;4913900;29;20036;-49
2022/03/17 03:59:33;;;;;;;20.48;6.93;;;;;;;11.31;62.76;99212.38;4916676;29;20020;-49
2022/03/17 04:02:05;;;;;;;11.07;6.25;;;;;;;11.26;62.71;99212.13;4918564;29;20469;-49
2022/03/17 04:04:32;;;;;;;10.18;6.25;;;;;;;11.25;62.82;99222.81;4918658;29;20104;-50
2022/03/17 04:07:01;;;;;;;16.58;6.68;;;;;;;11.19;63.28;99224.41;4918587;29;20024;-50
2022/03/17 04:09:34;;;;;;;10.75;5.82;;;;;;;11.20;63.46;99218.97;4918526;29;20506;-49
2022/03/17 04:12:01;;;;;;;13.57;5.85;;;;;;;11.30;63.58;99225.69;4918503;29;20036;-49
2022/03/17 04:14:27;;;;;;;10.88;7.80;;;;;;;11.29;63.26;99224.91;4918410;29;20545;-49
2022/03/17 04:16:53;;;;;;;18.90;11.70;;;;;;;11.25;63.59;99231.53;4918217;29;20131;-49
2022/03/17 04:19:19;;;;;;;11.90;8.50;;;;;;;11.25;63.84;99222.81;4918381;29;20116;-49
2022/03/17 04:21:47;;;;;;;11.23;6.95;;;;;;;11.28;63.67;99225.88;4918222;29;20032;-49
2022/03/17 04:24:13;;;;;;;16.33;7.10;;;;;;;11.36;63.74;99236.25;4918221;29;20051;-49
2022/03/17 04:26:39;;;;;;;16.98;8.02;;;;;;;11.43;63.00;99235.47;4918267;29;20032;-50
2022/03/17 04:29:06;;;;;;;14.68;8.00;;;;;;;11.31;63.50;99232.59;4918206;29;20390;-49
2022/03/17 04:31:34;;;;;;;14.20;7.28;;;;;;;11.28;63.49;99233.78;4918155;29;20043;-48
2022/03/17 04:34:00;;;;;;;12.05;7.57;;;;;;;11.33;63.18;99238.47;4918112;29;20032;-49
2022/03/17 04:36:25;;;;;;;19.05;9.48;;;;;;;11.34;63.13;99240.09;4918392;29;20426;-49
2022/03/17 04:38:52;;;;;;;15.80;11.32;;;;;;;11.27;63.24;99239.22;4918030;29;20140;-49
2022/03/17 04:41:18;;;;;;;16.48;13.65;;;;;;;11.17;63.68;99237.75;4917897;29;20566;-49
2022/03/17 04:43:45;;;;;;;19.67;9.75;;;;;;;11.13;63.75;99243.56;4917998;29;20024;-49
2022/03/17 04:46:10;;;;;;;12.65;9.80;;;;;;;11.13;63.82;99246.19;4917875;29;20115;-50
2022/03/17 04:48:37;;;;;;;31.05;10.55;;;;;;;11.08;63.81;99248.56;4917847;29;20611;-49
2022/03/17 04:51:05;;;;;;;14.77;9.32;;;;;;;11.05;63.72;99251.59;4917811;29;20028;-49
2022/03/17 04:53:32;;;;;;;16.08;9.73;;;;;;;11.05;64.16;99247.16;4917742;29;20035;-49
2022/03/17 04:55:59;;;;;;;20.55;10.32;;;;;;;11.09;63.97;99244.97;4917688;29;20070;-50
2022/03/17 04:58:25;;;;;;;15.32;9.30;;;;;;;11.08;63.66;99252.00;4917672;29;20024;-49
2022/03/17 05:00:53;;;;;;;16.27;8.40;;;;;;;11.10;63.67;99255.25;4917572;29;20036;-49
2022/03/17 05:03:20;;;;;;;16.58;9.50;;;;;;;11.13;63.80;99248.84;4917599;29;20022;-49
2022/03/17 05:05:47;;;;;;;11.75;7.65;;;;;;;11.09;63.68;99252.84;4916278;29;20458;-49
2022/03/17 05:08:13;;;;;;;15.15;7.22;;;;;;;10.95;63.71;99255.34;4916237;29;20025;-49
2022/03/17 05:10:40;;;;;;;17.52;7.38;;;;;;;10.89;64.12;99250.03;4915222;29;20032;-49
2022/03/17 05:13:09;;;;;;;13.20;7.45;;;;;;;10.84;64.04;99257.66;4917445;29;20032;-49
2022/03/17 05:15:35;;;;;;;13.75;8.07;;;;;;;10.87;64.34;99259.91;4916039;29;20031;-49
2022/03/17 05:18:03;;;;;;;18.23;7.63;;;;;;;10.86;64.41;99260.91;4915839;29;20557;-48
2022/03/17 05:20:29;;;;;;;13.90;7.32;;;;;;;10.89;64.14;99261.34;4916180;29;20394;-49
2022/03/17 05:22:55;;;;;;;15.60;7.65;;;;;;;10.93;64.32;99264.41;4915961;29;20020;-49
2022/03/17 05:25:21;;;;;;;12.70;7.93;;;;;;;10.92;64.03;99265.41;4915862;29;20034;-50
2022/03/17 05:27:51;;;;;;;14.50;7.75;;;;;;;10.87;64.14;99267.78;4915872;29;20462;-49
2022/03/17 05:30:18;;;;;;;14.75;7.93;;;;;;;10.78;64.43;99272.34;4915795;29;20537;-50
2022/03/17 05:32:45;;;;;;;17.27;7.68;;;;;;;10.78;64.44;99274.97;4915724;29;20032;-49
2022/03/17 05:35:13;;;;;;;19.02;7.88;;;;;;;10.78;64.50;99275.78;4915708;29;20462;-49
2022/03/17 05:37:42;;;;;;;19.20;8.52;;;;;;;10.76;64.62;99277.75;4917033;29;20044;-49
2022/03/17 05:40:13;;;;;;;21.20;9.02;;;;;;;10.75;64.88;99278.78;4915643;29;20035;-49
2022/03/17 05:42:40;;;;;;;20.67;9.70;;;;;;;10.84;64.99;99271.59;4916957;29;20525;-49
2022/03/17 05:45:07;;;;;;;18.02;9.43;;;;;;;10.92;64.89;99276.72;4916856;29;20450;-49
2022/03/17 05:47:36;;;;;;;15.65;8.82;;;;;;;10.99;64.79;99271.53;4916838;29;20031;-48
2022/03/17 05:50:04;;;;;;;23.98;8.85;;;;;;;11.06;64.57;99271.59;4915444;29;20039;-49
2022/03/17 05:52:31;;;;;;;19.17;9.65;;;;;;;11.17;64.79;99264.00;4916709;29;20032;-49
2022/03/17 05:54:57;;;;;;;24.77;9.52;;;;;;;11.43;64.75;99267.84;4916638;29;20020;-48
2022/03/17 05:57:23;;;;;;;22.10;9.18;;;;;;;11.68;64.01;99270.84;4916614;29;20024;-49
2022/03/17 05:59:49;;;;;;;15.52;9.50;;;;;;;11.89;64.02;99270.00;4915356;29;20450;-49
2022/03/17 06:02:14;;;;;;;19.27;9.38;;;;;;;12.12;63.46;99272.31;4915133;29;20059;-49
2022/03/17 06:04:41;;;;;;;17.40;8.85;;;;;;;12.34;62.83;99270.38;4915220;29;20028;-49
2022/03/17 06:07:07;;;;;;;20.33;9.30;;;;;;;12.56;62.28;99272.88;4916426;29;20088;-47
2022/03/17 06:09:33;;;;;;;19.08;9.43;;;;;;;12.69;62.08;99272.91;4916364;29;20515;-49
2022/03/17 06:12:00;;;;;;;21.52;9.15;;;;;;;12.83;61.87;99271.09;4916361;29;20047;-50
2022/03/17 06:14:27;;;;;;;28.27;10.32;;;;;;;12.96;61.40;99268.50;4915096;29;20047;-48
2022/03/17 06:16:53;;;;;;;31.98;9.90;;;;;;;13.18;60.84;99273.59;4914720;29;20095;-49
2022/03/17 06:19:19;;;;;;;20.98;9.38;;;;;;;13.32;60.28;99269.97;4915010;29;20461;-50
2022/03/17 06:21:45;;;;;;;20.35;9.18;;;;;;;13.50;59.88;99272.00;4915937;29;20115;-49
2022/03/17 06:24:11;;;;;;;26.05;9.88;;;;;;;13.60;59.61;99268.91;4914851;29;20024;-49
2022/03/17 06:26:37;;;;;;;25.40;9.38;;;;;;;13.68;59.18;99273.16;4914834;29;20451;-50
2022/03/17 06:29:03;;;;;;;15.70;9.27;;;;;;;13.74;58.88;99273.16;4914800;29;20039;-49
2022/03/17 06:31:28;;;;;;;17.88;8.32;;;;;;;13.77;58.75;99272.75;4914731;29;20039;-49
2022/03/17 06:33:54;;;;;;;23.42;9.02;;;;;;;13.85;58.96;99268.28;4914719;29;20024;-48
2022/03/17 06:36:20;;;;;;;24.15;8.05;;;;;;;13.95;58.43;99276.56;4915944;29;20024;-49
2022/03/17 06:38:46;;;;;;;28.23;9.38;;;;;;;14.10;58.16;99277.09;4914588;29;20524;-49
2022/03/17 06:41:12;;;;;;;59.05;12.27;;;;;;;14.29;57.89;99270.13;4915775;29;20024;-49
2022/03/17 06:43:38;;;;;;;32.08;9.32;;;;;;;14.49;57.32;99267.41;4915921;29;20364;-49
2022/03/17 06:46:03;;;;;;;23.25;9.75;;;;;;;14.66;56.67;99278.31;4914519;29;20123;-49
2022/03/17 06:48:29;;;;;;;28.65;9.63;;;;;;;14.82;56.36;99277.00;4914557;29;20028;-50
2022/03/17 06:50:57;;;;;;;21.95;8.73;;;;;;;14.95;56.02;99282.19;4914458;29;20087;-49
2022/03/17 06:53:23;;;;;;;31.35;9.98;;;;;;;15.03;55.80;99286.41;4915770;29;20103;-50
2022/03/17 06:55:48;;;;;;;24.80;9.95;;;;;;;15.21;55.51;99285.66;4914454;29;20111;-49
2022/03/17 06:58:14;;;;;;;22.88;8.43;;;;;;;15.40;55.22;99286.53;4914478;29;20078;-50
2022/03/17 07:00:40;;;;;;;24.50;9.32;;;;;;;15.51;54.72;99293.75;4914283;29;20028;-50
2022/03/17 07:03:06;;;;;;;22.55;8.45;;;;;;;15.66;54.56;99293.41;4914343;29;20032;-50
2022/03/17 07:05:32;;;;;;;29.17;9.40;;;;;;;15.82;54.04;99299.22;4914355;29;20024;-50
2022/03/17 07:07:58;;;;;;;32.63;8.85;;;;;;;15.96;53.99;99308.63;4914608;29;20028;-50
2022/03/17 07:10:24;;;;;;;30.83;9.98;;;;;;;16.15;53.34;99301.47;4914295;29;20029;-50
2022/03/17 07:12:50;;;;;;;19.80;9.00;;;;;;;16.32;52.88;99309.66;4914314;29;20059;-50
2022/03/17 07:15:15;;;;;;;23.38;9.68;;;;;;;16.54;52.47;99308.16;4914208;29;20028;-48
2022/03/17 07:17:42;;;;;;;34.00;9.90;;;;;;;16.70;51.95;99304.06;4913982;29;20061;-49
2022/03/17 07:20:16;;;;;;;21.70;8.43;;;;;;;16.87;51.47;99309.56;4914194;29;20024;-50
2022/03/17 07:22:43;;;;;;;25.42;8.90;;;;;;;16.83;51.35;99319.00;4898510;29;20039;-49
2022/03/17 07:25:11;;;;;;;30.00;9.00;;;;;;;16.82;51.19;99312.09;4915391;29;20020;-50
2022/03/17 07:27:43;;;;;;;22.98;8.90;;;;;;;17.06;50.70;99315.59;4914140;29;20036;-49
2022/03/17 07:30:18;;;;;;;22.52;9.05;;;;;;;17.30;50.23;99321.75;4914100;29;20035;-49
2022/03/17 07:32:46;;;;;;;24.90;9.15;;;;;;;17.53;49.80;99315.69;4915630;29;20059;-50
2022/03/17 07:35:12;;;;;;;17.40;8.85;;;;;;;17.82;49.18;99315.78;4917873;29;20154;-50
2022/03/17 07:37:39;;;;;;;34.25;8.73;;;;;;;18.11;48.58;99330.00;4917860;29;20103;-50
2022/03/17 07:40:05;;;;;;;24.63;9.88;;;;;;;18.34;47.78;99323.81;4917736;29;20035;-49
2022/03/17 07:42:31;;;;;;;26.05;9.75;;;;;;;18.51;47.30;99318.56;4917741;29;20035;-49
2022/03/17 07:44:57;;;;;;;31.58;11.40;;;;;;;18.66;47.04;99330.53;4917803;29;20407;-50
2022/03/17 07:47:23;;;;;;;31.30;9.98;;;;;;;18.70;46.76;99332.47;4917687;29;20387;-50
2022/03/17 07:49:50;;;;;;;32.95;10.10;;;;;;;18.78;46.47;99339.28;4917665;29;20084;-50
2022/03/17 07:52:16;;;;;;;19.98;9.65;;;;;;;18.91;46.12;99336.38;4918895;29;20166;-51
2022/03/17 07:54:42;;;;;;;21.27;9.00;;;;;;;18.90;46.13;99340.06;4917632;29;20120;-50
2022/03/17 07:57:08;;;;;;;18.73;10.00;;;;;;;19.01;45.66;99341.03;4917502;29;20522;-50
2022/03/17 07:59:34;;;;;;;18.10;9.50;;;;;;;19.09;45.38;99340.63;4918848;29;20048;-50
2022/03/17 08:02:02;;;;;;;19.33;10.13;;;;;;;19.31;45.00;99335.41;4917346;29;20028;-50
2022/03/17 08:04:28;;;;;;;20.13;9.73;;;;;;;19.47;44.53;99339.13;4918689;29;20024;-50
2022/03/17 08:06:57;;;;;;;27.73;9.48;;;;;;;19.53;44.45;99342.69;4917362;29;20079;-50
2022/03/17 08:09:24;;;;;;;26.30;9.75;;;;;;;19.65;44.22;99339.94;4918628;29;20055;-50
2022/03/17 08:11:50;;;;;;;22.02;10.02;;;;;;;19.86;43.79;99344.56;4918509;29;20035;-50
2022/03/17 08:14:16;;;;;;;19.05;9.35;;;;;;;20.15;43.04;99350.53;4917176;29;20024;-50
2022/03/17 08:16:46;;;;;;;14.95;8.98;;;;;;;20.32;42.65;99358.50;4916892;29;20035;-50
2022/03/17 08:19:13;;;;;;;22.92;9.85;;;;;;;20.40;42.46;99351.91;4917163;29;20032;-50
2022/03/17 08:21:39;;;;;;;28.83;9.45;;;;;;;20.55;42.10;99348.63;4917057;29;20115;-50
2022/03/17 08:24:06;;;;;;;24.73;9.02;;;;;;;20.86;41.39;99352.44;4918383;29;20024;-50
2022/03/17 08:26:33;;;;;;;22.80;9.23;;;;;;;20.98;41.22;99359.50;4916950;29;20024;-50
2022/03/17 08:28:59;;;;;;;25.40;10.50;;;;;;;20.67;41.34;99378.66;4916913;29;20039;-50
2022/03/17 08:31:25;;;;;;;17.08;9.05;;;;;;;20.34;42.11;99371.56;4918228;29;20435;-50
2022/03/17 08:33:51;;;;;;;19.13;10.38;;;;;;;20.29;42.31;99374.16;4916831;29;20035;-50
2022/03/17 08:36:17;;;;;;;25.88;10.20;;;;;;;20.28;42.49;99377.88;4916782;29;20033;-50
2022/03/17 08:38:42;;;;;;;16.77;9.52;;;;;;;20.15;42.53;99381.72;4916814;29;20028;-50
2022/03/17 08:41:08;;;;;;;16.25;9.77;;;;;;;20.08;42.89;99387.22;4917914;29;20140;-50
2022/03/17 08:43:34;;;;;;;22.00;10.38;;;;;;;20.18;42.40;99386.53;4916985;29;20063;-50
2022/03/17 08:51:29;;;;;;;33.63;10.90;;;;;;;20.27;42.61;99400.28;4917898;29;20044;-50
2022/03/17 08:53:56;;;;;;;16.85;9.93;;;;;;;20.39;42.26;99398.28;4917791;29;20113;-50
2022/03/17 08:56:22;;;;;;;24.40;10.95;;;;;;;20.57;41.99;99401.72;4916456;29;20064;-50
2022/03/17 08:58:48;;;;;;;25.52;12.13;;;;;;;20.66;41.76;99401.03;4916410;29;20052;-49
2022/03/17 09:01:14;;;;;;;24.73;9.10;;;;;;;20.97;41.21;99398.72;4916318;29;20119;-51
2022/03/17 09:03:40;;;;;;;22.08;10.48;;;;;;;21.40;40.33;99401.53;4916344;29;20095;-50
2022/03/17 09:06:06;;;;;;;22.08;9.68;;;;;;;21.67;39.15;99409.53;4916258;29;20107;-50
2022/03/17 09:08:32;;;;;;;22.40;10.90;;;;;;;21.93;38.88;99413.19;4916293;29;20033;-50
2022/03/17 09:10:58;;;;;;;28.55;10.88;;;;;;;21.91;39.03;99412.63;4916153;29;20111;-50
2022/03/17 09:13:28;;;;;;;18.35;9.48;;;;;;;21.73;39.22;99422.69;4916176;29;20106;-50
2022/03/17 09:15:55;;;;;;;24.00;9.68;;;;;;;21.65;38.64;99417.81;4917411;29;20064;-50
2022/03/17 09:18:22;;;;;;;24.95;10.02;;;;;;;21.51;39.25;99424.63;4917195;29;20068;-50
2022/03/17 09:20:49;;;;;;;23.02;10.18;;;;;;;21.46;39.41;99422.72;4915945;29;20028;-50
2022/03/17 09:23:16;;;;;;;22.10;10.35;;;;;;;21.49;39.35;99421.41;4900338;29;20115;-50
2022/03/17 09:25:43;;;;;;;26.15;11.13;;;;;;;21.57;39.52;99428.97;4917215;29;20020;-50
2022/03/17 09:28:08;;;;;;;22.17;11.02;;;;;;;21.67;39.58;99417.53;4915904;29;20545;-50
2022/03/17 09:30:35;;;;;;;15.85;9.57;;;;;;;21.97;39.05;99413.47;4915918;29;20153;-50
2022/03/17 09:33:03;;;;;;;20.92;11.18;;;;;;;22.32;38.53;99423.63;4917112;29;20024;-50
2022/03/17 09:35:29;;;;;;;19.33;9.88;;;;;;;22.41;38.13;99423.94;4915782;29;20593;-50
2022/03/17 09:37:55;;;;;;;28.10;10.75;;;;;;;22.40;37.37;99412.44;4915731;29;20046;-50
2022/03/17 09:40:21;;;;;;;22.02;10.70;;;;;;;22.32;37.86;99424.44;4915637;29;20067;-50
2022/03/17 09:42:47;;;;;;;26.45;10.77;;;;;;;22.51;37.69;99415.94;4915554;29;20036;-50
2022/03/17 09:45:14;;;;;;;20.70;10.20;;;;;;;22.71;37.26;99415.22;4916911;29;20042;-50
2022/03/17 09:47:43;;;;;;;18.85;10.10;;;;;;;22.75;37.52;99416.31;4916827;29;20028;-50
2022/03/17 09:50:14;;;;;;;22.13;9.90;;;;;;;22.87;37.00;99416.88;4916726;29;20604;-50
2022/03/17 09:52:41;;;;;;;24.02;10.43;;;;;;;22.82;36.91;99416.88;4916819;29;20455;-50
2022/03/17 09:55:10;;;;;;;22.10;9.45;;;;;;;22.54;37.00;99415.44;4915374;29;20032;-50
2022/03/17 09:57:38;;;;;;;19.95;8.75;;;;;;;22.33;37.32;99422.56;4916242;29;20451;-50
2022/03/17 10:00:05;;;;;;;16.80;8.63;;;;;;;22.13;37.59;99418.69;4916493;29;20406;-49
2022/03/17 10:02:32;;;;;;;21.80;9.52;;;;;;;22.00;37.83;99421.81;4916456;29;20032;-50
2022/03/17 10:04:58;;;;;;;20.38;9.70;;;;;;;21.88;38.37;99421.97;4915178;29;20107;-50
2022/03/17 10:07:24;;;;;;;20.88;8.82;;;;;;;22.01;38.16;99426.06;4916473;29;20484;-50
2022/03/17 10:09:50;;;;;;;19.38;8.50;;;;;;;22.18;38.11;99420.56;4916422;29;20507;-50
2022/03/17 10:12:22;;;;;;;22.60;9.18;;;;;;;22.02;38.11;99426.91;4915065;29;20036;-50
2022/03/17 10:14:51;;;;;;;24.10;9.75;;;;;;;21.99;38.21;99438.88;4915108;29;20036;-50
2022/03/17 10:17:37;;;;;;;15.70;8.75;;;;;;;22.06;38.05;99434.13;4914937;29;20083;-50
2022/03/17 10:20:22;;;;;;;20.42;9.98;;;;;;;21.95;38.26;99429.78;4916269;29;20066;-50
2022/03/17 10:22:53;;;;;;;22.55;8.98;;;;;;;21.89;38.84;99431.63;4916218;29;20043;-50
2022/03/17 10:25:24;;;;;;;17.63;9.70;;;;;;;22.03;38.38;99429.28;4914913;29;20043;-50
2022/03/17 10:27:54;;;;;;;22.25;8.68;;;;;;;22.10;38.13;99426.41;4899168;29;20038;-49
2022/03/17 10:30:32;;;;;;;22.98;8.30;;;;;;;22.11;38.04;99422.66;4914810;29;20024;-50
2022/03/17 10:33:14;;;;;;;17.15;8.95;;;;;;;22.01;37.79;99420.72;4916145;29;20031;-50
2022/03/17 10:35:45;;;;;;;13.13;8.35;;;;;;;21.86;38.29;99429.44;4916017;29;20052;-50
2022/03/17 10:38:13;;;;;;;17.10;9.00;;;;;;;21.91;38.69;99426.81;4916023;29;20055;-49
2022/03/17 10:40:41;;;;;;;19.90;8.45;;;;;;;21.96;38.31;99411.88;4915829;29;20027;-49
2022/03/17 10:43:24;;;;;;;30.98;10.23;;;;;;;21.65;39.23;99417.00;4915898;29;20039;-48
2022/03/17 10:46:16;;;;;;;21.90;9.45;;;;;;;21.50;39.14;99431.84;4914587;29;20039;-49
2022/03/17 10:49:02;;;;;;;25.48;9.52;;;;;;;21.62;39.25;99423.66;4915856;29;20039;-49
2022/03/17 10:51:41;;;;;;;19.27;9.40;;;;;;;21.51;39.73;99432.63;4914518;29;20024;-48
2022/03/17 10:54:12;;;;;;;15.68;9.65;;;;;;;21.53;39.44;99435.84;4915790;29;20032;-50
2022/03/17 10:56:39;;;;;;;17.42;8.75;;;;;;;21.70;39.54;99427.72;4915797;29;20108;-50
2022/03/17 10:59:07;;;;;;;22.80;9.43;;;;;;;22.07;38.76;99421.56;4915739;29;20040;-49
2022/03/17 11:01:45;;;;;;;16.48;8.65;;;;;;;22.23;38.98;99431.28;4915590;29;20517;-50
2022/03/17 11:04:12;;;;;;;27.27;9.68;;;;;;;22.29;38.99;99426.81;4915669;29;20099;-50
2022/03/17 11:06:39;;;;;;;18.17;8.40;;;;;;;22.17;39.02;99424.31;4915647;29;20387;-49
2022/03/17 11:09:08;;;;;;;21.45;9.55;;;;;;;21.93;39.63;99416.69;4914887;29;20020;-50
2022/03/17 11:11:38;;;;;;;20.35;8.60;;;;;;;21.71;39.95;99418.63;4914352;29;20028;-50
2022/03/17 11:14:09;;;;;;;20.38;8.77;;;;;;;21.17;41.38;99416.81;4914343;29;20028;-49
2022/03/17 11:16:42;;;;;;;20.48;9.75;;;;;;;20.61;42.20;99427.66;4915404;29;20051;-48
2022/03/17 11:19:14;;;;;;;23.13;9.05;;;;;;;19.97;43.51;99417.44;4914290;29;20032;-49
2022/03/17 11:21:46;;;;;;;27.23;9.90;;;;;;;19.33;44.86;99423.81;4915467;29;20080;-48
2022/03/17 11:24:22;;;;;;;18.33;9.02;;;;;;;18.88;46.19;99419.28;4915569;29;20106;-49
2022/03/17 11:26:50;;;;;;;27.02;8.98;;;;;;;18.71;46.63;99423.69;4914208;29;20032;-50
2022/03/17 11:29:18;;;;;;;20.75;9.05;;;;;;;18.57;47.23;99423.13;4915464;29;20082;-49
2022/03/17 11:31:58;;;;;;;24.45;9.52;;;;;;;18.46;47.86;99421.31;4914099;29;20127;-49
2022/03/17 11:34:38;;;;;;;16.63;8.82;;;;;;;18.28;48.16;99423.06;4914136;29;20430;-50
2022/03/17 11:37:20;;;;;;;17.83;9.13;;;;;;;18.01;48.65;99429.88;4914072;29;20523;-49